createdAt,value
2023-04-10T00:00:25.426Z,14.64
2023-04-10T00:01:27.472Z,14.62
2023-04-10T00:02:24.414Z,14.64
2023-04-10T00:03:24.357Z,14.62
2023-04-10T00:04:24.102Z,14.60
2023-04-10T00:05:23.963Z,14.57
2023-04-10T00:06:24.073Z,14.55
2023-04-10T00:07:23.895Z,14.54
2023-04-10T00:08:23.678Z,14.47
2023-04-10T00:09:23.791Z,14.45
2023-04-10T00:10:24.463Z,14.5
2023-04-10T00:11:23.861Z,14.46
2023-04-10T00:12:23.736Z,14.31
2023-04-10T00:13:23.832Z,14.27
2023-04-10T00:14:24.508Z,14.23
2023-04-10T00:15:23.354Z,14.20
2023-04-10T00:16:23.600Z,14.21
2023-04-10T00:17:23.822Z,14.15
2023-04-10T00:18:23.688Z,11
2023-04-10T00:19:24.049Z,14.28
2023-04-10T00:20:23.821Z,14.31
2023-04-10T00:21:28.874Z,14.29
2023-04-10T00:22:24.220Z,14.32
2023-04-10T00:23:24.152Z,14.31
2023-04-10T00:24:24.280Z,14.32
2023-04-10T00:25:23.493Z,14.27
2023-04-10T00:26:23.608Z,14.11
2023-04-10T00:27:24.174Z,14.19
2023-04-10T00:28:23.616Z,14.25
2023-04-10T00:29:23.503Z,14.27
2023-04-10T00:30:23.643Z,14.32
2023-04-10T00:31:37.594Z,14.30
2023-04-10T00:32:24.085Z,14.20
2023-04-10T00:33:23.792Z,14.25
2023-04-10T00:34:24.436Z,14.22
2023-04-10T00:35:23.630Z,14.28
2023-04-10T00:36:23.500Z,14.33
2023-04-10T00:37:23.398Z,14.37
2023-04-10T00:38:24.171Z,14.32
2023-04-10T00:39:24.190Z,14.30
2023-04-10T00:40:23.968Z,14.23
2023-04-10T00:41:23.856Z,14.24
2023-04-10T00:42:23.617Z,14.20
2023-04-10T00:43:23.527Z,14.25
2023-04-10T00:44:24.080Z,14.25
2023-04-10T00:45:23.943Z,14.27
2023-04-10T00:46:24.108Z,14.29
2023-04-10T00:47:23.656Z,14.33
2023-04-10T00:48:23.626Z,14.33
2023-04-10T00:49:23.869Z,14.36
2023-04-10T00:50:24.082Z,14.37
2023-04-10T00:51:24.440Z,14.35
2023-04-10T00:52:23.206Z,14.29
2023-04-10T00:53:23.649Z,14.27
2023-04-10T00:54:23.424Z,14.29
2023-04-10T00:55:23.684Z,14.31
2023-04-10T00:56:23.346Z,14.26
2023-04-10T00:57:23.710Z,14.19
2023-04-10T00:58:23.655Z,14.26
2023-04-10T00:59:24.102Z,14.30
2023-04-10T01:00:25.208Z,14.31
2023-04-10T01:01:23.579Z,14.27
2023-04-10T01:02:24.005Z,14.17
2023-04-10T01:03:23.601Z,14.18
2023-04-10T01:04:23.973Z,14.10
2023-04-10T01:05:23.805Z,14.00
2023-04-10T01:06:24.266Z,14.03
2023-04-10T01:07:23.326Z,14.01
2023-04-10T01:08:23.571Z,14.07
2023-04-10T01:09:23.949Z,14.13
2023-04-10T01:10:24.131Z,13.99
2023-04-10T01:11:24.335Z,14.01
2023-04-10T01:12:24.504Z,14.01
2023-04-10T01:13:24.071Z,13.97
2023-04-10T01:14:23.636Z,14.06
2023-04-10T01:15:24.090Z,14.10
2023-04-10T01:16:23.514Z,14.12
2023-04-10T01:17:23.328Z,14.13
2023-04-10T01:18:23.230Z,14.17
2023-04-10T01:19:23.699Z,14.22
2023-04-10T01:20:24.149Z,14.23
2023-04-10T01:21:23.332Z,14.21
2023-04-10T01:22:23.901Z,14.23
2023-04-10T01:23:23.485Z,14.23
2023-04-10T01:24:23.569Z,14.22
2023-04-10T01:25:23.347Z,14.16
2023-04-10T01:26:24.006Z,14.21
2023-04-10T01:27:23.268Z,14.22
2023-04-10T01:28:23.577Z,14.19
2023-04-10T01:29:23.642Z,14.14
2023-04-10T01:30:23.977Z,14.13
2023-04-10T01:31:24.134Z,14.17
2023-04-10T01:32:23.368Z,14.15
2023-04-10T01:33:23.625Z,14.17
2023-04-10T01:34:23.490Z,14.19
2023-04-10T01:35:24.312Z,14.20
2023-04-10T01:36:23.519Z,14.19
2023-04-10T01:37:23.342Z,14.19
2023-04-10T01:38:24.150Z,14.19
2023-04-10T01:39:24.320Z,14.19
2023-04-10T01:40:24.871Z,14.21
2023-04-10T01:41:24.303Z,14.15
2023-04-10T01:42:23.657Z,14.07
2023-04-10T01:43:23.769Z,14.11
2023-04-10T01:44:24.020Z,14.15
2023-04-10T01:45:23.933Z,14.17
2023-04-10T01:46:24.105Z,14.17
2023-04-10T01:47:24.187Z,14.16
2023-04-10T01:48:23.708Z,14.18
2023-04-10T01:49:23.580Z,14.15
2023-04-10T01:50:24.450Z,14.14
2023-04-10T01:51:23.732Z,14.10
2023-04-10T01:52:23.779Z,14.06
2023-04-10T01:53:23.933Z,14.04
2023-04-10T01:54:23.706Z,14.06
2023-04-10T01:55:23.671Z,13.98
2023-04-10T01:56:23.479Z,13.93
2023-04-10T01:57:24.317Z,13.90
2023-04-10T01:58:24.220Z,13.85
2023-04-10T01:59:24.284Z,13.88
2023-04-10T02:00:24.893Z,13.92
2023-04-10T02:01:29.692Z,13.89
2023-04-10T02:02:24.389Z,13.85
2023-04-10T02:03:24.201Z,13.76
2023-04-10T02:04:24.453Z,13.74
2023-04-10T02:05:23.928Z,13.70
2023-04-10T02:06:23.743Z,13.62
2023-04-10T02:07:23.060Z,13.71
2023-04-10T02:08:24.301Z,13.72
2023-04-10T02:09:23.725Z,13.68
2023-04-10T02:10:24.587Z,13.69
2023-04-10T02:11:23.565Z,13.64
2023-04-10T02:12:24.390Z,13.57
2023-04-10T02:13:23.778Z,13.62
2023-04-10T02:14:24.641Z,13.62
2023-04-10T02:15:23.871Z,13.62
2023-04-10T02:16:24.054Z,13.66
2023-04-10T02:17:24.076Z,13.68
2023-04-10T02:18:23.749Z,13.70
2023-04-10T02:19:23.638Z,13.71
2023-04-10T02:20:24.064Z,13.71
2023-04-10T02:21:23.500Z,13.75
2023-04-10T02:22:23.448Z,13.72
2023-04-10T02:23:24.168Z,13.72
2023-04-10T02:24:23.619Z,13.70
2023-04-10T02:25:23.988Z,13.71
2023-04-10T02:26:24.137Z,13.72
2023-04-10T02:27:23.772Z,13.71
2023-04-10T02:28:23.719Z,13.69
2023-04-10T02:29:23.552Z,13.71
2023-04-10T02:30:24.296Z,13.67
2023-04-10T02:31:23.612Z,13.67
2023-04-10T02:32:24.064Z,13.65
2023-04-10T02:33:23.649Z,13.60
2023-04-10T02:34:23.969Z,13.56
2023-04-10T02:35:23.279Z,13.60
2023-04-10T02:36:23.771Z,13.62
2023-04-10T02:37:24.044Z,13.60
2023-04-10T02:38:24.338Z,13.59
2023-04-10T02:39:24.269Z,13.56
2023-04-10T02:40:24.574Z,13.59
2023-04-10T02:41:23.911Z,13.55
2023-04-10T02:42:24.225Z,13.52
2023-04-10T02:43:23.322Z,13.48
2023-04-10T02:44:24.099Z,13.46
2023-04-10T02:45:23.935Z,13.47
2023-04-10T02:46:23.599Z,13.47
2023-04-10T02:47:23.618Z,13.49
2023-04-10T02:48:23.246Z,13.50
2023-04-10T02:49:23.962Z,13.51
2023-04-10T02:50:24.581Z,13.53
2023-04-10T02:51:24.266Z,13.56
2023-04-10T02:52:23.714Z,13.48
2023-04-10T02:53:24.281Z,13.34
2023-04-10T02:54:24.138Z,13.40
2023-04-10T02:55:23.792Z,13.45
2023-04-10T02:56:23.687Z,13.50
2023-04-10T02:57:23.760Z,13.5
2023-04-10T02:58:23.545Z,13.51
2023-04-10T02:59:23.430Z,13.5
2023-04-10T03:00:24.742Z,13.49
2023-04-10T03:01:24.199Z,13.52
2023-04-10T03:02:24.817Z,13.51
2023-04-10T03:03:24.039Z,13.51
2023-04-10T03:04:24.017Z,13.50
2023-04-10T03:05:23.419Z,13.51
2023-04-10T03:06:23.888Z,13.47
2023-04-10T03:07:24.032Z,13.50
2023-04-10T03:08:23.753Z,13.5
2023-04-10T03:09:23.407Z,13.49
2023-04-10T03:10:23.475Z,13.48
2023-04-10T03:11:23.527Z,13.47
2023-04-10T03:12:23.756Z,13.44
2023-04-10T03:13:23.636Z,13.45
2023-04-10T03:14:23.447Z,13.43
2023-04-10T03:15:23.460Z,13.40
2023-04-10T03:16:23.631Z,13.41
2023-04-10T03:17:23.761Z,13.39
2023-04-10T03:18:24.352Z,13.38
2023-04-10T03:19:23.992Z,13.37
2023-04-10T03:20:24.222Z,13.37
2023-04-10T03:21:23.735Z,13.38
2023-04-10T03:22:23.423Z,13.35
2023-04-10T03:23:23.586Z,13.33
2023-04-10T03:24:23.513Z,13.30
2023-04-10T03:25:23.650Z,13.27
2023-04-10T03:26:23.585Z,13.28
2023-04-10T03:27:23.783Z,13.27
2023-04-10T03:28:23.844Z,13.24
2023-04-10T03:29:24.088Z,13.22
2023-04-10T03:30:46.437Z,13.18
2023-04-10T03:31:23.722Z,13.15
2023-04-10T03:32:23.960Z,13.11
2023-04-10T03:33:24.008Z,13.05
2023-04-10T03:35:27.543Z,12.90
2023-04-10T03:36:23.752Z,12.86
2023-04-10T03:37:23.722Z,12.81
2023-04-10T03:38:23.622Z,12.81
2023-04-10T03:39:24.141Z,12.82
2023-04-10T03:40:23.512Z,12.81
2023-04-10T03:41:25.414Z,12.81
2023-04-10T03:42:24.075Z,12.81
2023-04-10T03:43:23.263Z,12.80
2023-04-10T03:44:23.814Z,12.80
2023-04-10T03:45:24.280Z,12.79
2023-04-10T03:46:23.190Z,12.77
2023-04-10T03:47:23.242Z,12.76
2023-04-10T03:48:23.524Z,12.73
2023-04-10T03:49:23.754Z,12.73
2023-04-10T03:50:24.171Z,12.73
2023-04-10T03:51:23.622Z,12.69
2023-04-10T03:52:23.222Z,12.71
2023-04-10T03:53:24.228Z,12.72
2023-04-10T03:54:23.023Z,12.69
2023-04-10T03:55:23.954Z,12.68
2023-04-10T03:56:23.918Z,12.67
2023-04-10T03:57:23.711Z,12.62
2023-04-10T03:58:23.262Z,12.60
2023-04-10T03:59:31.048Z,12.57
2023-04-10T04:00:25.221Z,12.56
2023-04-10T04:01:23.780Z,12.56
2023-04-10T04:02:24.032Z,12.51
2023-04-10T04:03:23.701Z,12.52
2023-04-10T04:04:23.363Z,12.51
2023-04-10T04:05:23.595Z,12.55
2023-04-10T04:06:23.918Z,12.55
2023-04-10T04:07:23.947Z,12.55
2023-04-10T04:08:23.936Z,12.49
2023-04-10T04:09:24.474Z,12.48
2023-04-10T04:10:24.231Z,12.48
2023-04-10T04:11:23.316Z,12.50
2023-04-10T04:12:23.642Z,12.51
2023-04-10T04:13:23.746Z,12.53
2023-04-10T04:14:23.660Z,12.53
2023-04-10T04:15:23.826Z,12.5
2023-04-10T04:16:23.782Z,12.52
2023-04-10T04:17:24.394Z,12.53
2023-04-10T04:18:23.735Z,12.53
2023-04-10T04:19:23.768Z,12.51
2023-04-10T04:20:23.886Z,12.48
2023-04-10T04:21:24.405Z,12.48
2023-04-10T04:22:24.362Z,12.47
2023-04-10T04:23:23.442Z,12.48
2023-04-10T04:24:24.022Z,12.47
2023-04-10T04:25:24.958Z,12.5
2023-04-10T04:26:23.953Z,12.48
2023-04-10T04:27:24.668Z,12.47
2023-04-10T04:28:24.094Z,12.44
2023-04-10T04:29:23.736Z,12.46
2023-04-10T04:30:23.607Z,12.47
2023-04-10T04:31:23.887Z,12.47
2023-04-10T04:32:23.580Z,12.48
2023-04-10T04:33:23.515Z,12.48
2023-04-10T04:34:23.209Z,12.47
2023-04-10T04:35:23.303Z,12.46
2023-04-10T04:36:23.798Z,12.43
2023-04-10T04:37:23.896Z,12.41
2023-04-10T04:38:24.376Z,12.38
2023-04-10T04:39:24.197Z,12.39
2023-04-10T04:40:23.482Z,12.40
2023-04-10T04:41:23.716Z,12.43
2023-04-10T04:42:23.115Z,12.43
2023-04-10T04:43:23.996Z,12.37
2023-04-10T04:44:24.718Z,12.32
2023-04-10T04:45:25.200Z,12.31
2023-04-10T04:46:24.058Z,12.32
2023-04-10T04:47:24.659Z,12.34
2023-04-10T04:48:23.981Z,12.40
2023-04-10T04:49:24.194Z,12.41
2023-04-10T04:50:24.132Z,12.43
2023-04-10T04:51:24.126Z,12.47
2023-04-10T04:52:23.411Z,12.47
2023-04-10T04:53:23.778Z,12.48
2023-04-10T04:54:24.044Z,12.5
2023-04-10T04:55:24.307Z,12.51
2023-04-10T04:56:23.312Z,12.55
2023-04-10T04:57:23.324Z,12.56
2023-04-10T04:58:23.462Z,12.59
2023-04-10T04:59:23.107Z,12.56
2023-04-10T05:00:25.044Z,12.59
2023-04-10T05:01:23.625Z,12.60
2023-04-10T05:02:23.906Z,12.58
2023-04-10T05:03:24.030Z,12.63
2023-04-10T05:04:24.167Z,12.60
2023-04-10T05:05:24.060Z,12.59
2023-04-10T05:06:23.766Z,12.61
2023-04-10T05:07:24.468Z,12.60
2023-04-10T05:08:24.348Z,12.59
2023-04-10T05:09:23.896Z,12.59
2023-04-10T05:10:23.832Z,12.60
2023-04-10T05:11:28.715Z,12.60
2023-04-10T05:12:24.301Z,12.59
2023-04-10T05:13:23.951Z,12.60
2023-04-10T05:14:23.771Z,12.56
2023-04-10T05:15:24.120Z,12.56
2023-04-10T05:16:23.617Z,12.55
2023-04-10T05:17:23.686Z,12.53
2023-04-10T05:18:24.194Z,12.52
2023-04-10T05:19:23.511Z,12.52
2023-04-10T05:20:23.946Z,12.52
2023-04-10T05:21:24.054Z,12.53
2023-04-10T05:22:23.497Z,12.52
2023-04-10T05:23:24.221Z,12.52
2023-04-10T05:24:23.929Z,12.52
2023-04-10T05:25:23.919Z,12.52
2023-04-10T05:26:24.565Z,12.51
2023-04-10T05:27:24.460Z,12.53
2023-04-10T05:28:24.582Z,12.53
2023-04-10T05:29:24.222Z,12.55
2023-04-10T05:30:25.064Z,12.56
2023-04-10T05:31:37.542Z,12.56
2023-04-10T05:32:23.432Z,12.56
2023-04-10T05:33:24.008Z,12.58
2023-04-10T05:34:23.461Z,12.57
2023-04-10T05:35:24.165Z,12.59
2023-04-10T05:36:24.280Z,12.61
2023-04-10T05:37:23.751Z,12.60
2023-04-10T05:38:23.545Z,12.60
2023-04-10T05:39:23.947Z,12.62
2023-04-10T05:40:24.097Z,12.64
2023-04-10T05:41:23.602Z,12.68
2023-04-10T05:42:24.215Z,12.71
2023-04-10T05:43:23.678Z,12.75
2023-04-10T05:44:23.764Z,12.80
2023-04-10T05:45:24.885Z,12.85
2023-04-10T05:46:24.025Z,12.92
2023-04-10T05:47:23.685Z,12.92
2023-04-10T05:48:23.618Z,12.92
2023-04-10T05:49:23.988Z,12.97
2023-04-10T05:50:24.553Z,13.02
2023-04-10T05:51:23.934Z,13.02
2023-04-10T05:52:24.031Z,13.13
2023-04-10T05:53:23.599Z,13.19
2023-04-10T05:54:24.171Z,13.22
2023-04-10T05:55:24.006Z,13.28
2023-04-10T05:56:23.606Z,13.35
2023-04-10T05:57:23.584Z,13.40
2023-04-10T05:59:23.716Z,13.54
2023-04-10T06:00:25.141Z,13.55
2023-04-10T06:01:23.629Z,13.64
2023-04-10T06:02:23.977Z,13.72
2023-04-10T06:03:24.575Z,13.80
2023-04-10T06:04:24.416Z,13.90
2023-04-10T06:05:24.858Z,13.96
2023-04-10T06:06:23.501Z,14.04
2023-04-10T06:07:24.612Z,14.12
2023-04-10T06:08:24.624Z,14.18
2023-04-10T06:09:23.871Z,14.22
2023-04-10T06:10:23.935Z,14.30
2023-04-10T06:11:23.900Z,14.37
2023-04-10T06:12:23.591Z,14.47
2023-04-10T06:13:23.556Z,14.53
2023-04-10T06:14:23.851Z,14.60
2023-04-10T06:15:24.723Z,14.65
2023-04-10T06:16:24.283Z,14.73
2023-04-10T06:17:23.680Z,14.79
2023-04-10T06:18:23.991Z,14.77
2023-04-10T06:19:23.901Z,14.84
2023-04-10T06:20:23.914Z,14.96
2023-04-10T06:21:23.969Z,15.06
2023-04-10T06:22:23.816Z,15.13
2023-04-10T06:23:23.394Z,15.17
2023-04-10T06:24:24.855Z,15.24
2023-04-10T06:25:24.667Z,15.29
2023-04-10T06:26:23.900Z,15.37
2023-04-10T06:27:23.846Z,15.43
2023-04-10T06:28:24.277Z,15.48
2023-04-10T06:29:24.074Z,15.54
2023-04-10T06:30:24.807Z,15.59
2023-04-10T06:31:23.946Z,15.60
2023-04-10T06:32:24.379Z,15.60
2023-04-10T06:33:24.278Z,15.64
2023-04-10T06:34:24.041Z,15.74
2023-04-10T06:35:23.883Z,15.78
2023-04-10T06:36:23.405Z,15.81
2023-04-10T06:37:23.832Z,15.83
2023-04-10T06:38:23.959Z,15.87
2023-04-10T06:39:24.472Z,15.92
2023-04-10T06:40:23.300Z,16.00
2023-04-10T06:41:23.354Z,16.05
2023-04-10T06:42:23.628Z,16.04
2023-04-10T06:43:23.616Z,16.06
2023-04-10T06:44:24.297Z,16.09
2023-04-10T06:45:23.761Z,16.09
2023-04-10T06:46:23.875Z,16.06
2023-04-10T06:47:24.175Z,16.09
2023-04-10T06:48:23.626Z,16.08
2023-04-10T06:49:24.321Z,16.05
2023-04-10T06:50:24.710Z,16.09
2023-04-10T06:51:24.132Z,16.10
2023-04-10T06:52:23.329Z,16.11
2023-04-10T06:54:27.709Z,16.09
2023-04-10T06:55:23.560Z,16.11
2023-04-10T06:56:24.324Z,16.13
2023-04-10T06:57:23.700Z,16.14
2023-04-10T06:58:23.715Z,16.19
2023-04-10T06:59:23.417Z,16.21
2023-04-10T07:00:25.074Z,16.25
2023-04-10T07:01:24.814Z,16.27
2023-04-10T07:02:24.126Z,16.33
2023-04-10T07:03:23.796Z,16.42
2023-04-10T07:04:23.756Z,16.41
2023-04-10T07:05:23.915Z,16.53
2023-04-10T07:06:24.066Z,16.55
2023-04-10T07:07:23.556Z,16.56
2023-04-10T07:08:24.172Z,16.62
2023-04-10T07:09:23.684Z,16.71
2023-04-10T07:10:24.130Z,16.79
2023-04-10T07:11:24.141Z,16.80
2023-04-10T07:12:23.672Z,16.86
2023-04-10T07:13:24.168Z,16.95
2023-04-10T07:14:23.568Z,16.96
2023-04-10T07:15:23.857Z,17.01
2023-04-10T07:16:23.475Z,17.10
2023-04-10T07:17:23.604Z,17.25
2023-04-10T07:18:23.715Z,17.39
2023-04-10T07:19:24.700Z,17.45
2023-04-10T07:20:23.972Z,17.48
2023-04-10T07:21:24.140Z,17.5
2023-04-10T07:22:23.772Z,17.61
2023-04-10T07:23:23.929Z,17.69
2023-04-10T07:24:23.950Z,17.72
2023-04-10T07:25:24.179Z,17.77
2023-04-10T07:26:23.645Z,17.82
2023-04-10T07:27:23.727Z,17.89
2023-04-10T07:28:24.137Z,17.95
2023-04-10T07:29:23.876Z,18.04
2023-04-10T07:30:24.626Z,18.10
2023-04-10T07:31:23.771Z,18.17
2023-04-10T07:32:24.110Z,18.27
2023-04-10T07:33:23.927Z,18.39
2023-04-10T07:34:23.616Z,18.48
2023-04-10T07:35:24.058Z,18.59
2023-04-10T07:36:28.843Z,18.69
2023-04-10T07:37:23.991Z,18.79
2023-04-10T07:38:23.850Z,18.87
2023-04-10T07:39:23.927Z,18.91
2023-04-10T07:40:23.663Z,18.98
2023-04-10T07:41:24.640Z,19.03
2023-04-10T07:42:24.331Z,19.11
2023-04-10T07:43:23.815Z,19.21
2023-04-10T07:44:24.118Z,19.23
2023-04-10T07:45:24.430Z,19.30
2023-04-10T07:46:24.317Z,19.36
2023-04-10T07:47:24.417Z,19.42
2023-04-10T07:48:24.160Z,19.46
2023-04-10T07:49:23.376Z,19.54
2023-04-10T07:50:24.430Z,19.63
2023-04-10T07:51:23.922Z,19.66
2023-04-10T07:52:23.640Z,19.73
2023-04-10T07:53:23.753Z,19.78
2023-04-10T07:54:23.453Z,19.86
2023-04-10T07:55:23.489Z,19.93
2023-04-10T07:56:23.351Z,19.99
2023-04-10T07:57:24.243Z,20.06
2023-04-10T07:58:23.547Z,20.12
2023-04-10T07:59:23.905Z,20.15
2023-04-10T08:00:38.578Z,20.23
2023-04-10T08:01:23.520Z,20.27
2023-04-10T08:02:24.460Z,20.31
2023-04-10T08:03:24.504Z,20.35
2023-04-10T08:04:24.702Z,20.40
2023-04-10T08:05:24.381Z,20.43
2023-04-10T08:06:23.621Z,20.46
2023-04-10T08:07:23.999Z,20.53
2023-04-10T08:08:23.178Z,20.56
2023-04-10T08:09:23.638Z,20.61
2023-04-10T08:10:24.788Z,20.65
2023-04-10T08:11:24.065Z,20.70
2023-04-10T08:12:23.624Z,20.71
2023-04-10T08:13:23.793Z,20.74
2023-04-10T08:14:24.417Z,20.79
2023-04-10T08:15:23.764Z,20.85
2023-04-10T08:16:23.558Z,20.81
2023-04-10T08:17:23.122Z,20.82
2023-04-10T08:18:24.322Z,20.86
2023-04-10T08:19:24.012Z,20.93
2023-04-10T08:20:23.433Z,20.93
2023-04-10T08:21:24.228Z,20.99
2023-04-10T08:22:24.255Z,21.04
2023-04-10T08:23:24.280Z,21.06
2023-04-10T08:24:24.284Z,21.12
2023-04-10T08:25:23.852Z,21.19
2023-04-10T08:26:23.679Z,21.25
2023-04-10T08:27:24.440Z,21.32
2023-04-10T08:28:23.835Z,21.39
2023-04-10T08:30:24.302Z,21.57
2023-04-10T08:31:23.932Z,21.61
2023-04-10T08:32:23.838Z,21.70
2023-04-10T08:33:23.208Z,21.79
2023-04-10T08:34:23.681Z,21.85
2023-04-10T08:35:24.119Z,21.90
2023-04-10T08:36:24.079Z,21.95
2023-04-10T08:37:23.698Z,22.01
2023-04-10T08:38:23.551Z,22.05
2023-04-10T08:39:24.200Z,22.12
2023-04-10T08:40:24.541Z,22.15
2023-04-10T08:41:24.430Z,22.21
2023-04-10T08:42:24.294Z,22.27
2023-04-10T08:43:24.547Z,22.29
2023-04-10T08:44:23.989Z,22.35
2023-04-10T08:45:24.087Z,22.43
2023-04-10T08:46:24.209Z,22.46
2023-04-10T08:47:23.819Z,22.46
2023-04-10T08:48:24.850Z,22.50
2023-04-10T08:49:23.414Z,22.51
2023-04-10T08:50:23.691Z,22.53
2023-04-10T08:51:25.830Z,22.56
2023-04-10T08:52:23.822Z,22.59
2023-04-10T08:53:24.368Z,22.63
2023-04-10T08:54:24.272Z,22.65
2023-04-10T08:55:24.689Z,22.64
2023-04-10T08:56:23.513Z,22.65
2023-04-10T08:57:23.338Z,22.70
2023-04-10T08:58:24.635Z,22.76
2023-04-10T08:59:23.022Z,22.77
2023-04-10T09:00:24.587Z,22.75
2023-04-10T09:01:24.198Z,22.75
2023-04-10T09:02:23.583Z,22.80
2023-04-10T09:03:24.097Z,22.85
2023-04-10T09:04:23.656Z,22.94
2023-04-10T09:05:23.585Z,22.87
2023-04-10T09:06:23.276Z,22.75
2023-04-10T09:07:23.300Z,22.59
2023-04-10T09:08:24.089Z,22.56
2023-04-10T09:09:23.770Z,22.54
2023-04-10T09:10:23.734Z,22.50
2023-04-10T09:11:23.634Z,22.52
2023-04-10T09:12:23.331Z,22.56
2023-04-10T09:13:23.507Z,22.47
2023-04-10T09:14:23.992Z,22.47
2023-04-10T09:15:24.013Z,22.51
2023-04-10T09:16:23.909Z,22.48
2023-04-10T09:17:24.044Z,22.51
2023-04-10T09:18:24.282Z,22.39
2023-04-10T09:19:23.289Z,22.40
2023-04-10T09:20:24.512Z,22.44
2023-04-10T09:21:23.320Z,22.54
2023-04-10T09:22:23.841Z,22.52
2023-04-10T09:23:23.101Z,22.5
2023-04-10T09:24:23.629Z,22.49
2023-04-10T09:25:23.617Z,22.41
2023-04-10T09:26:24.013Z,22.32
2023-04-10T09:27:23.985Z,22.37
2023-04-10T09:28:23.721Z,22.39
2023-04-10T09:29:23.418Z,22.44
2023-04-10T09:30:23.474Z,22.49
2023-04-10T09:31:23.336Z,22.56
2023-04-10T09:32:23.431Z,22.62
2023-04-10T09:33:23.311Z,22.68
2023-04-10T09:34:23.442Z,22.80
2023-04-10T09:35:23.685Z,22.81
2023-04-10T09:36:23.529Z,22.90
2023-04-10T09:37:24.116Z,23.00
2023-04-10T09:38:23.484Z,23.09
2023-04-10T09:39:23.315Z,23.20
2023-04-10T09:40:23.979Z,23.25
2023-04-10T09:41:24.008Z,23.31
2023-04-10T09:42:23.363Z,23.39
2023-04-10T09:43:23.838Z,23.48
2023-04-10T09:44:24.134Z,23.58
2023-04-10T09:45:23.749Z,23.68
2023-04-10T09:46:23.597Z,23.71
2023-04-10T09:47:23.638Z,23.76
2023-04-10T09:48:23.903Z,23.81
2023-04-10T09:49:23.772Z,23.96
2023-04-10T09:50:24.277Z,24.01
2023-04-10T09:51:23.963Z,24.07
2023-04-10T09:52:23.682Z,24.14
2023-04-10T09:53:23.914Z,24.32
2023-04-10T09:54:23.763Z,24.27
2023-04-10T09:55:23.588Z,24.25
2023-04-10T09:56:23.449Z,24.37
2023-04-10T09:57:23.140Z,24.47
2023-04-10T09:58:23.691Z,24.45
2023-04-10T09:59:23.758Z,24.44
2023-04-10T10:00:24.589Z,24.48
2023-04-10T10:01:29.036Z,24.52
2023-04-10T10:02:23.597Z,24.49
2023-04-10T10:03:29.054Z,24.52
2023-04-10T10:04:23.698Z,24.59
2023-04-10T10:05:23.962Z,24.65
2023-04-10T10:06:23.396Z,24.71
2023-04-10T10:07:23.480Z,24.78
2023-04-10T10:08:24.000Z,24.74
2023-04-10T10:09:32.233Z,24.79
2023-04-10T10:10:23.808Z,24.83
2023-04-10T10:11:23.748Z,24.76
2023-04-10T10:12:23.657Z,24.76
2023-04-10T10:13:23.906Z,24.82
2023-04-10T10:14:23.998Z,24.88
2023-04-10T10:15:23.849Z,24.87
2023-04-10T10:16:24.172Z,24.94
2023-04-10T10:17:23.416Z,24.94
2023-04-10T10:18:24.127Z,24.94
2023-04-10T10:19:23.223Z,24.91
2023-04-10T10:20:24.106Z,24.94
2023-04-10T10:21:23.823Z,24.94
2023-04-10T10:22:24.053Z,24.93
2023-04-10T10:23:37.970Z,24.87
2023-04-10T10:24:23.779Z,24.95
2023-04-10T10:25:24.070Z,24.96
2023-04-10T10:26:23.973Z,25.03
2023-04-10T10:27:23.602Z,25.12
2023-04-10T10:28:23.774Z,25.23
2023-04-10T10:29:23.750Z,25.24
2023-04-10T10:30:29.947Z,25.28
2023-04-10T10:31:23.457Z,25.32
2023-04-10T10:32:23.668Z,25.37
2023-04-10T10:33:23.886Z,25.42
2023-04-10T10:34:24.479Z,25.48
2023-04-10T10:35:43.427Z,25.51
2023-04-10T10:36:23.490Z,25.59
2023-04-10T10:37:42.642Z,25.63
2023-04-10T10:38:23.726Z,25.67
2023-04-10T10:39:24.104Z,25.65
2023-04-10T10:40:23.655Z,25.64
2023-04-10T10:41:23.624Z,25.63
2023-04-10T10:42:23.410Z,25.61
2023-04-10T10:43:23.295Z,25.62
2023-04-10T10:44:24.067Z,25.72
2023-04-10T10:45:24.013Z,25.80
2023-04-10T10:46:24.189Z,25.79
2023-04-10T10:47:24.003Z,25.87
2023-04-10T10:48:23.653Z,25.91
2023-04-10T10:49:23.609Z,25.93
2023-04-10T10:50:24.881Z,25.94
2023-04-10T10:51:23.444Z,26.02
2023-04-10T10:52:23.307Z,25.98
2023-04-10T10:53:23.895Z,26
2023-04-10T10:54:23.867Z,25.94
2023-04-10T10:55:24.266Z,25.90
2023-04-10T10:56:22.722Z,25.89
2023-04-10T10:57:23.426Z,25.89
2023-04-10T10:58:23.477Z,25.90
2023-04-10T10:59:23.520Z,25.95
2023-04-10T11:00:24.193Z,25.97
2023-04-10T11:01:23.812Z,26
2023-04-10T11:02:23.627Z,26.07
2023-04-10T11:03:23.483Z,26.10
2023-04-10T11:04:24.100Z,26.07
2023-04-10T11:05:23.656Z,26.12
2023-04-10T11:06:23.656Z,26.16
2023-04-10T11:07:23.259Z,26.21
2023-04-10T11:08:23.877Z,26.25
2023-04-10T11:09:23.893Z,26.32
2023-04-10T11:10:23.299Z,26.39
2023-04-10T11:11:23.905Z,26.48
2023-04-10T11:12:24.127Z,26.42
2023-04-10T11:13:24.034Z,26.39
2023-04-10T11:14:23.741Z,26.37
2023-04-10T11:15:23.664Z,26.44
2023-04-10T11:16:24.189Z,26.49
2023-04-10T11:17:23.730Z,26.45
2023-04-10T11:18:23.711Z,26.48
2023-04-10T11:19:24.037Z,26.53
2023-04-10T11:20:23.556Z,26.56
2023-04-10T11:21:23.686Z,26.57
2023-04-10T11:22:23.785Z,26.58
2023-04-10T11:23:24.375Z,26.57
2023-04-10T11:24:23.822Z,26.59
2023-04-10T11:25:23.693Z,26.48
2023-04-10T11:26:23.413Z,26.45
2023-04-10T11:27:23.319Z,26.51
2023-04-10T11:28:23.810Z,26.56
2023-04-10T11:29:23.906Z,26.55
2023-04-10T11:30:23.509Z,26.50
2023-04-10T11:31:23.311Z,26.53
2023-04-10T11:32:23.671Z,26.56
2023-04-10T11:33:23.768Z,26.53
2023-04-10T11:34:24.013Z,26.54
2023-04-10T11:35:24.216Z,26.50
2023-04-10T11:36:23.477Z,26.56
2023-04-10T11:37:23.538Z,26.63
2023-04-10T11:38:23.927Z,26.63
2023-04-10T11:39:24.176Z,26.62
2023-04-10T11:40:23.275Z,26.61
2023-04-10T11:41:23.840Z,26.64
2023-04-10T11:42:23.666Z,26.65
2023-04-10T11:43:23.256Z,26.67
2023-04-10T11:44:23.215Z,26.75
2023-04-10T11:45:23.477Z,26.85
2023-04-10T11:46:24.066Z,26.84
2023-04-10T11:47:23.887Z,26.87
2023-04-10T11:48:24.085Z,26.84
2023-04-10T11:49:23.386Z,26.87
2023-04-10T11:50:23.964Z,26.92
2023-04-10T11:51:23.825Z,26.96
2023-04-10T11:52:23.710Z,27.00
2023-04-10T11:53:23.240Z,27.06
2023-04-10T11:54:23.854Z,27.06
2023-04-10T11:55:23.656Z,27.09
2023-04-10T11:56:23.459Z,27.16
2023-04-10T11:57:23.408Z,27.19
2023-04-10T11:58:23.225Z,27.20
2023-04-10T11:59:23.715Z,27.22
2023-04-10T12:00:24.236Z,27.24
2023-04-10T12:01:23.934Z,27.23
2023-04-10T12:02:23.656Z,27.28
2023-04-10T12:03:24.426Z,27.30
2023-04-10T12:04:24.254Z,27.32
2023-04-10T12:05:24.315Z,27.33
2023-04-10T12:06:23.598Z,27.42
2023-04-10T12:07:23.822Z,27.49
2023-04-10T12:08:23.905Z,27.51
2023-04-10T12:09:23.753Z,27.56
2023-04-10T12:10:23.493Z,27.58
2023-04-10T12:11:23.356Z,27.63
2023-04-10T12:12:23.403Z,27.57
2023-04-10T12:13:23.332Z,27.60
2023-04-10T12:14:24.012Z,27.61
2023-04-10T12:15:23.295Z,27.61
2023-04-10T12:16:23.912Z,27.64
2023-04-10T12:17:23.502Z,27.69
2023-04-10T12:18:28.470Z,27.71
2023-04-10T12:19:23.741Z,27.69
2023-04-10T12:20:23.418Z,27.66
2023-04-10T12:21:23.272Z,27.67
2023-04-10T12:22:23.684Z,27.72
2023-04-10T12:23:23.602Z,27.67
2023-04-10T12:24:23.350Z,27.67
2023-04-10T12:25:23.463Z,27.68
2023-04-10T12:26:23.679Z,27.72
2023-04-10T12:27:23.729Z,27.76
2023-04-10T12:28:23.170Z,27.74
2023-04-10T12:29:23.811Z,27.74
2023-04-10T12:30:23.799Z,27.79
2023-04-10T12:31:23.107Z,27.83
2023-04-10T12:32:23.693Z,27.79
2023-04-10T12:33:23.573Z,27.71
2023-04-10T12:34:23.427Z,27.77
2023-04-10T12:35:23.549Z,27.83
2023-04-10T12:36:23.050Z,27.80
2023-04-10T12:37:23.685Z,27.80
2023-04-10T12:38:23.510Z,27.79
2023-04-10T12:39:23.915Z,27.80
2023-04-10T12:40:24.035Z,27.86
2023-04-10T12:41:24.397Z,27.92
2023-04-10T12:42:23.582Z,27.95
2023-04-10T12:43:23.521Z,27.87
2023-04-10T12:44:23.503Z,27.84
2023-04-10T12:45:23.644Z,27.77
2023-04-10T12:46:23.623Z,27.79
2023-04-10T12:47:23.830Z,27.77
2023-04-10T12:48:23.925Z,27.74
2023-04-10T12:49:23.309Z,27.73
2023-04-10T12:50:23.809Z,27.75
2023-04-10T12:51:23.857Z,27.77
2023-04-10T12:52:23.645Z,27.74
2023-04-10T12:53:23.333Z,27.70
2023-04-10T12:54:23.405Z,27.70
2023-04-10T12:55:23.741Z,27.69
2023-04-10T12:56:23.620Z,27.72
2023-04-10T12:57:22.992Z,27.78